Time;durP1;ratioP1;P1;durP2;ratioP2;P2;SDS_P1;SDS_P2;PMS_P1;PMS_P2;Temp;Humidity;BMP_temperature;BMP_pressure;BME280_temperature;BME280_humidity;BME280_pressure;Samples;Min_cycle;Max_cycle;Signal;HPM_P1;HPM_P2
2021/07/26 00:01:20;;;;;;;6.18;3.83;;;;;;;17.38;62.03;96831.88;5055031;28;20029;-57
2021/07/26 00:03:46;;;;;;;3.78;3.38;;;;;;;17.44;61.98;96831.50;5055013;28;20039;-56
2021/07/26 00:06:11;;;;;;;4.47;3.30;;;;;;;17.37;62.08;96832.84;5054978;28;20463;-60
2021/07/26 00:08:37;;;;;;;9.45;3.58;;;;;;;17.23;62.23;96837.16;5054783;28;20097;-54
2021/07/26 00:11:09;;;;;;;7.07;4.32;;;;;;;17.18;62.56;96832.16;5054640;28;20060;-57
2021/07/26 00:13:35;;;;;;;7.40;3.55;;;;;;;17.10;62.25;96831.75;5054839;28;20013;-56
2021/07/26 00:16:01;;;;;;;5.82;3.35;;;;;;;17.09;62.31;96831.84;5054807;28;20048;-62
2021/07/26 00:18:27;;;;;;;3.13;2.83;;;;;;;17.07;62.28;96823.16;5054174;28;20072;-67
2021/07/26 00:20:53;;;;;;;6.22;2.65;;;;;;;17.05;62.34;96823.22;5054495;28;20387;-61
2021/07/26 00:23:19;;;;;;;4.32;3.20;;;;;;;17.01;62.33;96827.00;5054549;28;20075;-66
2021/07/26 00:25:45;;;;;;;7.70;4.00;;;;;;;16.93;62.49;96830.94;5054658;28;20409;-61
2021/07/26 00:28:11;;;;;;;4.03;3.30;;;;;;;16.97;62.57;96836.03;5054122;28;20089;-64
2021/07/26 00:30:37;;;;;;;3.10;2.83;;;;;;;17.01;62.20;96842.84;5054265;28;20025;-59
2021/07/26 00:33:46;;;;;;;7.30;3.22;;;;;;;16.95;62.14;96830.00;5054599;28;20082;-58
2021/07/26 00:36:12;;;;;;;6.55;3.28;;;;;;;16.84;62.29;96834.13;5054515;28;20445;-58
2021/07/26 00:38:38;;;;;;;5.68;3.78;;;;;;;16.87;62.46;96835.72;5054521;28;20025;-58
2021/07/26 00:41:03;;;;;;;3.08;2.78;;;;;;;16.87;62.25;96843.66;5053913;28;20028;-60
2021/07/26 00:43:29;;;;;;;5.00;2.92;;;;;;;16.83;62.38;96840.38;5054334;28;20458;-60
2021/07/26 00:45:54;;;;;;;3.30;2.88;;;;;;;16.86;62.43;96837.50;5053073;28;20032;-53
2021/07/26 00:48:20;;;;;;;3.53;2.78;;;;;;;16.93;62.22;96830.94;5054257;28;20060;-53
2021/07/26 00:50:45;;;;;;;6.00;2.72;;;;;;;16.90;61.97;96828.50;5054043;28;20024;-61
2021/07/26 00:53:11;;;;;;;5.18;3.45;;;;;;;16.84;62.00;96836.78;5053582;28;20462;-67
2021/07/26 00:55:40;;;;;;;11.07;2.78;;;;;;;16.84;62.05;96823.56;5054082;28;20052;-61
2021/07/26 00:58:05;;;;;;;3.35;2.85;;;;;;;16.84;61.96;96818.28;5054036;28;20067;-63
2021/07/26 01:00:31;;;;;;;3.80;3.08;;;;;;;16.77;62.21;96814.31;5053619;28;20052;-60
2021/07/26 01:02:56;;;;;;;5.63;3.50;;;;;;;16.76;62.38;96821.38;5052380;28;20525;-55
2021/07/26 01:05:22;;;;;;;5.80;3.63;;;;;;;16.74;62.99;96817.94;5053813;28;20025;-60
2021/07/26 01:07:47;;;;;;;6.93;3.33;;;;;;;16.71;62.67;96823.44;5053198;28;20029;-60
2021/07/26 01:10:13;;;;;;;3.13;2.70;;;;;;;16.59;62.75;96817.09;5053842;28;20060;-63
2021/07/26 01:12:39;;;;;;;4.32;3.20;;;;;;;16.62;62.64;96823.97;5053817;28;20025;-60
2021/07/26 01:15:05;;;;;;;6.30;3.15;;;;;;;16.58;62.69;96820.66;5053695;28;20055;-66
2021/07/26 01:17:44;;;;;;;3.42;3.05;;;;;;;16.58;63.09;96822.44;5053782;28;20029;-65
2021/07/26 01:20:10;;;;;;;5.05;3.10;;;;;;;16.51;62.90;96816.66;5033736;28;20175;-57
2021/07/26 01:22:36;;;;;;;5.35;3.15;;;;;;;16.52;63.11;96813.94;5033781;28;20108;-58
2021/07/26 01:25:02;;;;;;;5.03;3.28;;;;;;;16.59;62.81;96805.66;5033630;28;20464;-58
2021/07/26 01:27:27;;;;;;;4.03;3.60;;;;;;;16.53;63.02;96805.06;5033974;28;20376;-54
2021/07/26 01:29:53;;;;;;;7.35;3.30;;;;;;;16.48;62.83;96796.56;5034009;28;20029;-59
2021/07/26 01:32:18;;;;;;;4.45;3.20;;;;;;;16.48;62.75;96793.06;5052989;28;20024;-61
2021/07/26 01:34:44;;;;;;;3.67;2.92;;;;;;;16.50;62.83;96799.97;5052771;28;20032;-58
2021/07/26 01:37:09;;;;;;;3.95;3.17;;;;;;;16.50;63.14;96799.97;5053384;28;20027;-60
2021/07/26 01:39:35;;;;;;;6.38;2.78;;;;;;;16.45;63.06;96796.75;5053222;28;20386;-63
2021/07/26 01:42:00;;;;;;;5.20;3.28;;;;;;;16.44;63.24;96784.50;5053318;28;20024;-57
2021/07/26 01:44:26;;;;;;;4.20;3.35;;;;;;;16.48;63.08;96787.78;5052886;28;20029;-58
2021/07/26 01:47:05;;;;;;;4.45;3.42;;;;;;;16.44;63.34;96789.78;5053280;28;20029;-66
2021/07/26 01:49:52;;;;;;;9.70;4.10;;;;;;;16.40;63.28;96788.22;5053091;28;20115;-53
2021/07/26 01:52:19;;;;;;;5.93;3.20;;;;;;;16.46;63.28;96790.53;5053342;28;20033;-54
2021/07/26 01:54:45;;;;;;;4.43;3.50;;;;;;;16.48;63.17;96787.78;5052908;28;20187;-56
2021/07/26 01:57:10;;;;;;;5.05;3.20;;;;;;;16.49;63.01;96784.22;5052782;28;20107;-55
2021/07/26 01:59:37;;;;;;;5.72;3.30;;;;;;;16.49;63.08;96789.50;5053093;28;20029;-64
2021/07/26 02:02:02;;;;;;;3.88;2.85;;;;;;;16.44;62.88;96794.19;5052934;28;20033;-64
2021/07/26 02:04:28;;;;;;;3.88;2.97;;;;;;;16.39;63.23;96787.41;5052547;28;20029;-63
2021/07/26 02:06:53;;;;;;;5.53;3.22;;;;;;;16.35;63.47;96785.03;5052696;28;20109;-64
2021/07/26 02:09:19;;;;;;;5.40;2.97;;;;;;;16.40;63.46;96793.50;5052975;28;20021;-60
2021/07/26 02:11:45;;;;;;;4.03;2.78;;;;;;;16.39;63.49;96789.19;5053107;28;20052;-55
2021/07/26 02:14:10;;;;;;;3.72;3.35;;;;;;;16.39;63.49;96784.75;5052384;28;20492;-64
2021/07/26 02:16:37;;;;;;;4.07;3.50;;;;;;;16.36;63.27;96782.28;5052919;28;20017;-57
2021/07/26 02:19:03;;;;;;;3.25;2.85;;;;;;;16.37;63.56;96783.13;5052917;28;20017;-55
2021/07/26 02:21:29;;;;;;;6.50;2.85;;;;;;;16.35;63.97;96783.25;5052748;28;20356;-52
2021/07/26 02:23:55;;;;;;;6.07;3.40;;;;;;;16.33;63.76;96784.25;5052722;28;20024;-56
2021/07/26 02:26:20;;;;;;;14.15;3.85;;;;;;;16.32;63.89;96785.19;5052558;28;20025;-59
2021/07/26 02:28:46;;;;;;;5.80;2.95;;;;;;;16.33;63.91;96781.59;5052882;28;20021;-57
2021/07/26 02:31:11;;;;;;;3.83;2.90;;;;;;;16.27;64.22;96781.03;5052600;28;20421;-59
2021/07/26 02:33:37;;;;;;;4.55;3.10;;;;;;;16.25;63.96;96779.41;5052826;28;20057;-63
2021/07/26 02:36:03;;;;;;;7.50;3.00;;;;;;;16.29;63.84;96776.50;5052589;28;20025;-57
2021/07/26 02:38:28;;;;;;;4.60;3.35;;;;;;;16.26;63.66;96775.84;5052592;28;20021;-57
2021/07/26 02:40:54;;;;;;;7.03;3.13;;;;;;;16.26;64.26;96779.31;5053608;28;20427;-62
2021/07/26 02:43:19;;;;;;;3.42;2.97;;;;;;;16.23;63.61;96771.59;5052655;28;20463;-56
2021/07/26 02:45:45;;;;;;;5.88;3.42;;;;;;;16.25;63.83;96779.41;5054149;28;20021;-57
2021/07/26 02:48:10;;;;;;;5.40;3.22;;;;;;;16.29;63.99;96779.16;5056674;28;20028;-57
2021/07/26 02:50:36;;;;;;;5.28;2.85;;;;;;;16.24;63.84;96778.56;5056349;28;20025;-66
2021/07/26 02:53:02;;;;;;;4.38;3.35;;;;;;;16.26;63.78;96779.31;5055499;28;20373;-62
2021/07/26 02:55:29;;;;;;;5.07;2.97;;;;;;;16.22;63.77;96776.97;5056379;28;20025;-61
2021/07/26 02:57:56;;;;;;;5.10;3.40;;;;;;;16.26;63.94;96781.97;5056376;28;20025;-60
2021/07/26 03:00:22;;;;;;;6.75;4.18;;;;;;;16.29;63.92;96786.22;5055619;28;20036;-62
2021/07/26 03:02:47;;;;;;;4.70;3.13;;;;;;;16.25;63.70;96789.97;5056103;28;20410;-58
2021/07/26 03:05:13;;;;;;;3.42;3.10;;;;;;;16.22;64.14;96784.88;5055627;28;20114;-62
2021/07/26 03:07:38;;;;;;;5.47;3.10;;;;;;;16.18;64.44;96784.19;5055986;28;20029;-58
2021/07/26 03:10:04;;;;;;;4.68;3.08;;;;;;;16.22;63.92;96783.06;5056068;28;20036;-54
2021/07/26 03:12:30;;;;;;;11.68;3.13;;;;;;;16.19;63.81;96782.41;5056118;28;20024;-58
2021/07/26 03:14:55;;;;;;;6.18;3.17;;;;;;;16.20;64.05;96786.75;5055876;28;20112;-60
2021/07/26 03:17:24;;;;;;;5.15;3.20;;;;;;;16.19;63.83;96788.53;5055537;28;20017;-60
2021/07/26 03:19:55;;;;;;;8.95;3.47;;;;;;;16.27;63.75;96796.00;5055940;28;20112;-60
2021/07/26 03:22:48;;;;;;;7.75;4.35;;;;;;;16.26;64.36;96797.78;5055940;28;20037;-56
2021/07/26 03:25:14;;;;;;;4.57;3.40;;;;;;;16.24;64.17;96801.47;5055779;28;20387;-60
2021/07/26 03:27:40;;;;;;;4.43;3.13;;;;;;;16.22;63.94;96798.91;5055715;28;20025;-57
2021/07/26 03:30:06;;;;;;;3.50;2.80;;;;;;;16.27;64.15;96802.16;5055147;28;20025;-64
2021/07/26 03:32:32;;;;;;;4.55;3.15;;;;;;;16.33;64.31;96805.38;5055285;28;20025;-57
2021/07/26 03:34:57;;;;;;;3.08;2.78;;;;;;;16.36;64.06;96800.78;5055670;28;20029;-57
2021/07/26 03:37:23;;;;;;;5.20;3.13;;;;;;;16.38;63.87;96804.16;5055720;28;20383;-64
2021/07/26 03:39:48;;;;;;;5.32;3.63;;;;;;;16.37;64.06;96807.75;5054469;28;20063;-58
2021/07/26 03:42:14;;;;;;;7.03;2.70;;;;;;;16.35;63.74;96799.09;5055118;28;20467;-58
2021/07/26 03:44:40;;;;;;;5.95;2.95;;;;;;;16.41;63.79;96801.34;5055334;28;20051;-63
2021/07/26 03:47:05;;;;;;;6.13;3.35;;;;;;;16.50;63.92;96809.69;5055457;28;20039;-55
2021/07/26 03:49:31;;;;;;;7.40;3.50;;;;;;;16.57;64.05;96808.38;5055016;28;20025;-57
2021/07/26 03:51:57;;;;;;;3.20;2.90;;;;;;;16.75;63.66;96808.25;5055031;28;20036;-60
2021/07/26 03:54:22;;;;;;;4.93;2.83;;;;;;;17.03;63.08;96804.81;5054312;28;20041;-57
2021/07/26 03:56:48;;;;;;;5.05;2.88;;;;;;;17.44;61.76;96820.94;5053904;28;20025;-75
2021/07/26 03:59:13;;;;;;;8.25;2.72;;;;;;;17.85;61.16;96815.78;5054587;28;20017;-72
2021/07/26 04:01:39;;;;;;;3.47;2.85;;;;;;;18.23;60.28;96816.94;5055105;28;20090;-73
2021/07/26 04:04:04;;;;;;;5.68;3.97;;;;;;;18.54;59.50;96823.75;5054741;28;20037;-72
2021/07/26 04:06:30;;;;;;;4.40;2.70;;;;;;;18.95;59.20;96823.72;5054995;28;20017;-70
2021/07/26 04:08:56;;;;;;;9.75;2.85;;;;;;;19.38;57.93;96821.78;5054953;28;20485;-72
2021/07/26 04:11:25;;;;;;;5.10;2.72;;;;;;;19.73;56.93;96817.56;5053637;28;20029;-76
2021/07/26 04:14:03;;;;;;;3.65;2.63;;;;;;;19.96;55.94;96831.88;5054569;28;20097;-70
2021/07/26 04:16:29;;;;;;;6.40;2.50;;;;;;;20.30;55.33;96825.94;5054292;28;20048;-73
2021/07/26 04:18:56;;;;;;;5.30;2.80;;;;;;;20.57;55.43;96823.06;5053937;28;20021;-75
2021/07/26 04:21:32;;;;;;;3.97;2.70;;;;;;;20.98;54.75;96836.03;5053369;28;20035;-72
2021/07/26 04:23:59;;;;;;;6.65;2.10;;;;;;;21.29;54.14;96833.69;5053418;28;20410;-72
2021/07/26 04:26:25;;;;;;;5.18;2.35;;;;;;;21.61;53.76;96833.97;5053480;28;20032;-71
2021/07/26 04:28:52;;;;;;;4.65;3.03;;;;;;;21.88;52.54;96830.13;5053413;28;20029;-73
2021/07/26 04:31:17;;;;;;;5.07;2.60;;;;;;;22.12;52.38;96821.13;5053379;28;20522;-71
2021/07/26 04:33:43;;;;;;;5.35;2.60;;;;;;;22.10;52.06;96823.91;5054146;28;20067;-72
2021/07/26 04:36:09;;;;;;;4.10;2.33;;;;;;;22.37;51.52;96830.63;5054438;28;20025;-75
2021/07/26 04:38:34;;;;;;;6.22;2.88;;;;;;;22.72;51.03;96832.22;5054501;28;20021;-73
2021/07/26 04:41:00;;;;;;;5.78;2.60;;;;;;;23.14;50.42;96838.53;5054447;28;20017;-75
2021/07/26 04:43:26;;;;;;;3.97;2.50;;;;;;;23.49;49.87;96833.88;5054323;28;20033;-75
2021/07/26 04:45:52;;;;;;;5.93;2.42;;;;;;;23.79;49.80;96840.19;5054378;28;20399;-75
2021/07/26 04:48:17;;;;;;;4.18;2.30;;;;;;;24.19;48.94;96833.16;5054209;28;20032;-75
2021/07/26 04:50:43;;;;;;;4.07;2.28;;;;;;;24.46;48.78;96834.34;5054183;28;20037;-70
2021/07/26 04:53:08;;;;;;;5.95;2.75;;;;;;;24.79;47.52;96835.88;5053804;28;20526;-72
2021/07/26 04:55:34;;;;;;;8.25;2.92;;;;;;;25.07;47.81;96836.88;5054318;28;20025;-74
2021/07/26 04:57:59;;;;;;;3.47;2.42;;;;;;;25.29;47.09;96844.75;5054275;28;20040;-70
2021/07/26 05:00:27;;;;;;;2.75;2.25;;;;;;;25.67;46.60;96844.81;5054098;28;20025;-73
2021/07/26 05:02:53;;;;;;;3.30;2.40;;;;;;;26.02;47.57;96839.72;5053982;28;20091;-74
2021/07/26 05:05:19;;;;;;;6.05;2.13;;;;;;;26.19;45.97;96844.28;5053952;28;20537;-73
2021/07/26 05:07:45;;;;;;;3.45;2.88;;;;;;;26.47;45.05;96844.28;5053793;28;20037;-72
2021/07/26 05:10:11;;;;;;;3.17;2.58;;;;;;;26.75;45.09;96841.53;5053857;28;20033;-73
2021/07/26 05:12:37;;;;;;;3.20;2.58;;;;;;;27.03;45.31;96839.78;5053869;28;20033;-70
2021/07/26 05:15:03;;;;;;;5.72;2.05;;;;;;;27.23;43.74;96840.44;5053970;28;20029;-72
2021/07/26 05:17:29;;;;;;;5.38;2.63;;;;;;;27.43;44.22;96837.56;5053646;28;20017;-71
2021/07/26 05:19:55;;;;;;;2.88;2.15;;;;;;;27.65;42.90;96836.19;5053752;28;20032;-72
2021/07/26 05:22:21;;;;;;;4.82;2.50;;;;;;;27.91;42.13;96840.69;5053529;28;20494;-73
2021/07/26 05:24:47;;;;;;;7.68;2.65;;;;;;;28.12;40.56;96826.81;5053675;28;20029;-73
2021/07/26 05:27:14;;;;;;;8.50;2.65;;;;;;;28.34;40.30;96826.41;5053641;28;20047;-71
2021/07/26 05:29:39;;;;;;;7.05;2.38;;;;;;;28.49;41.32;96829.31;5053468;28;20108;-71
2021/07/26 05:32:06;;;;;;;4.88;2.55;;;;;;;28.65;42.64;96831.16;5053482;28;20048;-71
2021/07/26 05:34:32;;;;;;;4.18;2.40;;;;;;;28.92;43.80;96831.88;5053415;28;20025;-72
2021/07/26 05:36:58;;;;;;;4.68;2.65;;;;;;;29.19;42.61;96831.75;5053392;28;20031;-72
2021/07/26 05:39:23;;;;;;;3.20;2.10;;;;;;;29.42;41.86;96831.88;5053292;28;20029;-70
2021/07/26 05:41:50;;;;;;;4.57;2.70;;;;;;;29.64;41.79;96833.03;5053313;28;20021;-72
2021/07/26 05:44:16;;;;;;;7.00;2.78;;;;;;;29.77;38.87;96831.66;5053358;28;20025;-72
2021/07/26 05:46:42;;;;;;;4.20;2.58;;;;;;;29.98;40.22;96841.00;5053380;28;20032;-74
2021/07/26 05:49:08;;;;;;;4.97;2.75;;;;;;;30.20;39.06;96839.41;5053314;28;20477;-71
2021/07/26 05:51:33;;;;;;;3.50;2.58;;;;;;;30.34;38.23;96837.00;5053155;28;20021;-70
2021/07/26 05:53:59;;;;;;;5.97;2.72;;;;;;;30.51;38.25;96843.09;5052799;28;20483;-71
2021/07/26 05:56:25;;;;;;;6.15;2.38;;;;;;;30.76;39.92;96837.59;5053145;28;20113;-74
2021/07/26 05:58:50;;;;;;;5.40;3.45;;;;;;;30.87;35.59;96837.16;5053114;28;20044;-70
2021/07/26 06:03:46;;;;;;;10.80;2.75;;;;;;;31.14;36.25;96843.03;5052983;28;20025;-74
2021/07/26 06:06:11;;;;;;;2.67;2.30;;;;;;;31.37;34.07;96841.31;5051820;28;20530;-71
2021/07/26 06:08:37;;;;;;;3.75;2.80;;;;;;;31.54;35.00;96844.69;5053151;28;20048;-70
2021/07/26 06:11:03;;;;;;;5.97;2.88;;;;;;;31.74;35.25;96847.69;5052874;28;20425;-70
2021/07/26 06:13:32;;;;;;;8.00;3.00;;;;;;;32.00;34.15;96849.09;5052964;28;20028;-70
2021/07/26 06:15:58;;;;;;;5.72;2.53;;;;;;;32.05;34.70;96847.72;5052927;28;20021;-70
2021/07/26 06:18:24;;;;;;;7.93;2.63;;;;;;;32.15;33.86;96848.25;5052900;28;20079;-70
2021/07/26 06:20:49;;;;;;;5.68;2.17;;;;;;;32.31;33.37;96847.19;5055976;28;20017;-72
2021/07/26 06:23:15;;;;;;;7.03;2.75;;;;;;;32.47;34.62;96850.72;5056961;28;20483;-71
2021/07/26 06:25:41;;;;;;;5.78;2.22;;;;;;;32.58;34.09;96847.53;5057132;28;20024;-70
2021/07/26 06:28:07;;;;;;;7.68;2.50;;;;;;;32.86;33.75;96848.63;5056957;28;20025;-74
2021/07/26 06:30:32;;;;;;;3.65;2.20;;;;;;;32.98;31.63;96857.06;5056725;28;20385;-71
2021/07/26 06:32:58;;;;;;;3.13;2.30;;;;;;;33.19;31.40;96845.41;5056850;28;20029;-69
2021/07/26 06:35:23;;;;;;;4.78;2.50;;;;;;;33.42;31.37;96849.75;5056773;28;20078;-69
2021/07/26 06:37:49;;;;;;;7.55;2.58;;;;;;;33.02;28.67;96845.66;5056751;28;20049;-71
2021/07/26 06:40:15;;;;;;;7.00;2.83;;;;;;;32.88;31.21;96857.41;5056805;28;20036;-72
2021/07/26 06:42:42;;;;;;;6.13;2.53;;;;;;;32.78;31.16;96853.13;5056674;28;20043;-71
2021/07/26 06:45:08;;;;;;;11.43;2.50;;;;;;;32.94;33.61;96850.38;5056630;28;20021;-72
2021/07/26 06:47:35;;;;;;;2.20;2.00;;;;;;;32.89;30.56;96846.38;5056670;28;20025;-70
2021/07/26 06:50:00;;;;;;;8.23;2.70;;;;;;;33.10;31.13;96836.59;5056535;28;20364;-72
2021/07/26 06:52:26;;;;;;;5.53;2.40;;;;;;;33.01;29.67;96846.69;5056534;28;20528;-69
2021/07/26 06:54:51;;;;;;;4.65;2.13;;;;;;;33.31;28.88;96842.19;5056168;28;20052;-72
2021/07/26 06:57:17;;;;;;;4.15;2.22;;;;;;;33.56;29.37;96837.16;5056416;28;20021;-69
2021/07/26 06:59:43;;;;;;;7.53;2.88;;;;;;;33.62;27.75;96847.22;5056469;28;20490;-71
2021/07/26 07:02:08;;;;;;;7.28;2.45;;;;;;;33.39;26.79;96837.47;5056388;28;20027;-72
2021/07/26 07:04:34;;;;;;;2.63;2.20;;;;;;;33.10;28.69;96833.88;5056315;28;20029;-70
2021/07/26 07:07:00;;;;;;;7.95;2.22;;;;;;;33.12;29.62;96830.97;5056251;28;20017;-70
2021/07/26 07:09:25;;;;;;;3.90;2.05;;;;;;;33.07;28.68;96833.47;5056072;28;20025;-71
2021/07/26 07:11:51;;;;;;;5.85;2.53;;;;;;;33.12;28.45;96836.41;5056174;28;20108;-70
2021/07/26 07:14:17;;;;;;;6.00;2.72;;;;;;;32.98;30.15;96838.13;5056291;28;20101;-72
2021/07/26 07:16:43;;;;;;;4.57;2.55;;;;;;;32.64;29.65;96838.66;5056150;28;20111;-70
2021/07/26 07:19:09;;;;;;;8.13;2.33;;;;;;;32.97;30.40;96841.84;5056019;28;20029;-71
2021/07/26 07:21:34;;;;;;;5.75;2.55;;;;;;;33.29;29.91;96853.22;5055816;28;20036;-71
2021/07/26 07:24:02;;;;;;;5.00;2.10;;;;;;;33.57;28.60;96846.09;5055904;28;20100;-72
2021/07/26 07:26:29;;;;;;;6.03;2.10;;;;;;;33.90;28.02;96853.63;5055777;28;20082;-71
2021/07/26 07:28:54;;;;;;;5.57;2.25;;;;;;;34.21;28.32;96852.34;5055882;28;20112;-71
2021/07/26 07:31:26;;;;;;;5.05;2.17;;;;;;;34.50;29.85;96849.53;5054526;28;20116;-72
2021/07/26 07:33:56;;;;;;;3.40;2.30;;;;;;;34.72;26.89;96843.97;5055937;28;20112;-74
2021/07/26 07:36:22;;;;;;;3.42;2.03;;;;;;;34.71;26.60;96848.59;5055675;28;20024;-72
2021/07/26 07:38:49;;;;;;;3.85;2.35;;;;;;;34.61;26.87;96848.09;5055696;28;20013;-73
2021/07/26 07:41:16;;;;;;;4.15;2.28;;;;;;;34.60;26.33;96849.13;5055630;28;20021;-71
2021/07/26 07:43:42;;;;;;;4.85;2.40;;;;;;;34.72;26.87;96849.41;5055423;28;20033;-71
2021/07/26 07:46:08;;;;;;;8.93;2.30;;;;;;;34.92;27.01;96852.97;5055408;28;20021;-73
2021/07/26 07:48:34;;;;;;;3.22;2.40;;;;;;;34.74;28.47;96850.88;5055395;28;20070;-74
2021/07/26 07:51:00;;;;;;;3.53;2.22;;;;;;;34.41;28.87;96851.59;5055362;28;20525;-72
2021/07/26 07:53:27;;;;;;;5.10;2.30;;;;;;;34.46;27.37;96851.00;5055010;28;20037;-71
2021/07/26 07:55:52;;;;;;;4.70;2.60;;;;;;;34.65;27.06;96857.50;5055295;28;20367;-72
2021/07/26 07:58:19;;;;;;;3.33;2.30;;;;;;;34.36;27.82;96854.06;5055281;28;20017;-72
2021/07/26 08:00:49;;;;;;;7.72;2.63;;;;;;;34.10;26.47;96840.16;5054069;28;20546;-71
2021/07/26 08:03:14;;;;;;;12.38;2.65;;;;;;;33.76;26.14;96848.13;5055150;28;20028;-74
2021/07/26 08:05:40;;;;;;;3.72;2.50;;;;;;;33.78;27.55;96848.78;5055251;28;20390;-71
2021/07/26 08:08:07;;;;;;;6.45;2.28;;;;;;;33.96;27.01;96847.41;5055135;28;20029;-74
2021/07/26 08:10:33;;;;;;;4.57;2.55;;;;;;;34.08;26.37;96841.41;5054946;28;20029;-74
2021/07/26 08:12:59;;;;;;;9.32;2.58;;;;;;;33.56;28.87;96839.03;5055049;28;20021;-72
2021/07/26 08:15:25;;;;;;;5.18;2.53;;;;;;;33.34;28.09;96831.78;5055064;28;20025;-74
2021/07/26 08:17:51;;;;;;;3.95;2.20;;;;;;;33.12;29.17;96839.09;5055128;28;20099;-77
2021/07/26 08:20:17;;;;;;;6.22;2.40;;;;;;;33.15;28.99;96830.59;5054873;28;20028;-73
2021/07/26 08:22:44;;;;;;;4.25;2.20;;;;;;;33.10;27.46;96836.59;5054883;28;20100;-72
2021/07/26 08:25:14;;;;;;;3.97;2.20;;;;;;;33.44;31.72;96845.00;5054849;28;20385;-71
2021/07/26 08:27:53;;;;;;;4.38;2.15;;;;;;;33.71;29.21;96847.06;5054816;28;20395;-72
2021/07/26 08:30:27;;;;;;;6.57;2.58;;;;;;;33.67;28.59;96846.63;5054642;28;20124;-73
2021/07/26 08:32:54;;;;;;;2.40;2.20;;;;;;;33.78;27.85;96851.50;5054724;28;20498;-74
2021/07/26 08:35:21;;;;;;;9.30;2.60;;;;;;;33.87;28.81;96844.03;5054600;28;20017;-74
2021/07/26 08:37:48;;;;;;;9.52;2.53;;;;;;;34.17;29.09;96848.38;5054587;28;20032;-71
2021/07/26 08:40:14;;;;;;;3.53;2.53;;;;;;;33.81;28.24;96855.69;5054565;28;20033;-73
2021/07/26 08:42:40;;;;;;;5.82;2.60;;;;;;;34.02;28.35;96854.75;5053985;28;20021;-72
2021/07/26 08:45:09;;;;;;;15.85;2.47;;;;;;;34.11;27.38;96847.28;5054408;28;20091;-71
2021/07/26 08:47:38;;;;;;;7.57;2.72;;;;;;;33.90;28.06;96848.22;5054380;28;20021;-70
2021/07/26 08:50:05;;;;;;;5.30;2.53;;;;;;;34.08;29.04;96852.25;5054315;28;20032;-73
2021/07/26 08:52:39;;;;;;;8.15;2.47;;;;;;;34.27;28.11;96843.41;5053963;28;20060;-70
2021/07/26 08:55:09;;;;;;;4.40;2.55;;;;;;;34.33;26.89;96840.91;5054196;28;20025;-71
2021/07/26 08:57:36;;;;;;;8.90;2.50;;;;;;;33.82;27.20;96843.78;5054115;28;20037;-70
2021/07/26 09:00:02;;;;;;;7.05;2.85;;;;;;;33.00;28.29;96844.19;5053978;28;20475;-73
2021/07/26 09:02:27;;;;;;;4.75;2.95;;;;;;;32.21;28.36;96839.41;5054033;28;20421;-72
2021/07/26 09:04:54;;;;;;;6.40;2.67;;;;;;;32.44;31.02;96842.97;5054111;28;20051;-72
2021/07/26 09:07:26;;;;;;;3.72;2.50;;;;;;;32.41;28.72;96841.47;5053998;28;20033;-72
2021/07/26 09:09:52;;;;;;;5.20;2.78;;;;;;;32.31;29.76;96836.38;5053775;28;20025;-71
2021/07/26 09:12:31;;;;;;;4.45;2.83;;;;;;;32.20;32.62;96848.50;5053850;28;20074;-70
2021/07/26 09:14:57;;;;;;;5.90;2.85;;;;;;;32.24;30.03;96839.00;5053796;28;20422;-70
2021/07/26 09:17:23;;;;;;;3.30;2.17;;;;;;;32.14;28.91;96842.00;5052453;28;20120;-71
2021/07/26 09:20:01;;;;;;;4.10;2.70;;;;;;;32.11;32.22;96839.69;5053721;28;20068;-69
2021/07/26 09:22:31;;;;;;;3.67;2.38;;;;;;;32.30;31.85;96844.69;5053759;28;20036;-70
2021/07/26 09:25:12;;;;;;;4.20;2.83;;;;;;;32.42;30.32;96839.63;5052478;28;20032;-73
2021/07/26 09:27:38;;;;;;;4.25;2.63;;;;;;;32.45;31.24;96842.78;5053727;28;20025;-70
2021/07/26 09:30:15;;;;;;;9.50;2.70;;;;;;;32.85;30.42;96833.41;5053427;28;20430;-71
2021/07/26 09:32:41;;;;;;;3.20;2.90;;;;;;;32.68;29.41;96825.56;5053413;28;20577;-69
2021/07/26 09:35:08;;;;;;;5.15;2.92;;;;;;;32.40;29.58;96835.25;5053468;28;20242;-72
2021/07/26 09:37:36;;;;;;;4.13;2.88;;;;;;;32.30;31.98;96829.31;5053305;28;20139;-72
2021/07/26 09:40:21;;;;;;;7.07;2.53;;;;;;;32.25;31.50;96826.31;5053409;28;20467;-70
2021/07/26 09:42:48;;;;;;;10.73;2.65;;;;;;;32.53;31.61;96823.75;5053332;28;20037;-71
2021/07/26 09:45:22;;;;;;;6.57;2.65;;;;;;;32.71;30.75;96825.16;5053373;28;20414;-71
2021/07/26 09:48:18;;;;;;;6.80;3.05;;;;;;;32.77;31.43;96818.97;5053277;28;20491;-70
2021/07/26 09:50:49;;;;;;;4.88;2.60;;;;;;;33.02;30.30;96815.03;5036626;28;20051;-69
2021/07/26 09:53:24;;;;;;;5.85;2.92;;;;;;;33.13;30.48;96816.41;5053177;28;20095;-72
2021/07/26 09:55:54;;;;;;;3.58;2.80;;;;;;;33.23;30.79;96818.78;5052654;28;20138;-70
2021/07/26 09:58:35;;;;;;;5.40;3.00;;;;;;;33.28;28.54;96809.03;5053070;28;20387;-70
2021/07/26 10:01:01;;;;;;;4.00;2.50;;;;;;;33.39;30.28;96807.66;5053205;28;20441;-70
2021/07/26 10:03:28;;;;;;;6.97;3.08;;;;;;;33.28;29.78;96813.59;5053075;28;20474;-73
2021/07/26 10:05:54;;;;;;;5.35;2.80;;;;;;;33.37;28.38;96808.84;5053084;28;20036;-69
2021/07/26 10:08:21;;;;;;;8.77;3.08;;;;;;;33.34;28.16;96814.66;5053088;28;20036;-72
2021/07/26 10:10:47;;;;;;;5.07;3.10;;;;;;;33.31;30.08;96807.78;5051707;28;20107;-71
2021/07/26 10:13:13;;;;;;;7.70;3.30;;;;;;;33.26;29.63;96808.38;5053059;28;20028;-73
2021/07/26 10:15:40;;;;;;;7.75;3.22;;;;;;;32.88;29.47;96798.69;5052951;28;20033;-74
2021/07/26 10:18:06;;;;;;;8.23;3.20;;;;;;;32.52;28.61;96805.84;5052864;28;20027;-73
2021/07/26 10:20:41;;;;;;;4.63;3.50;;;;;;;32.48;31.00;96799.13;5053085;28;20352;-73
2021/07/26 10:23:14;;;;;;;7.72;2.80;;;;;;;32.53;31.52;96804.81;5052917;28;20025;-74
2021/07/26 10:26:01;;;;;;;3.78;2.80;;;;;;;32.65;32.66;96801.56;5052949;28;20053;-72
2021/07/26 10:28:32;;;;;;;6.90;3.00;;;;;;;32.90;31.69;96801.19;5052474;28;20033;-72
2021/07/26 10:30:58;;;;;;;5.40;3.35;;;;;;;32.70;28.66;96793.72;5052723;28;20352;-73
2021/07/26 10:33:24;;;;;;;5.15;2.95;;;;;;;32.56;31.08;96794.63;5052848;28;20094;-70
2021/07/26 10:35:52;;;;;;;6.32;3.17;;;;;;;32.71;30.34;96795.38;5052687;28;20029;-72
2021/07/26 10:38:43;;;;;;;5.25;3.33;;;;;;;32.73;30.68;96798.75;5052742;28;20055;-70
2021/07/26 10:41:09;;;;;;;13.32;2.83;;;;;;;32.68;30.38;96797.66;5052735;28;20032;-73
2021/07/26 10:43:54;;;;;;;7.50;3.35;;;;;;;32.82;31.26;96785.06;5052798;28;20017;-70
2021/07/26 10:46:20;;;;;;;3.78;3.17;;;;;;;33.01;29.41;96787.13;5052796;28;20028;-75
2021/07/26 10:48:52;;;;;;;12.50;3.80;;;;;;;32.81;30.64;96786.13;5052587;28;20027;-70
2021/07/26 10:51:42;;;;;;;7.47;3.45;;;;;;;32.56;28.78;96781.09;5052546;28;20025;-74
2021/07/26 10:54:09;;;;;;;11.50;3.45;;;;;;;32.47;28.79;96783.88;5052490;28;20045;-73
2021/07/26 10:57:03;;;;;;;6.55;3.78;;;;;;;32.52;28.51;96784.19;5052534;28;20025;-70
2021/07/26 10:59:29;;;;;;;11.07;3.92;;;;;;;32.47;31.36;96781.19;5052509;28;20037;-74
2021/07/26 11:02:02;;;;;;;5.28;3.30;;;;;;;32.50;31.01;96779.97;5052490;28;20021;-73
2021/07/26 11:04:36;;;;;;;7.70;3.60;;;;;;;32.66;30.76;96781.63;5052420;28;20079;-71
2021/07/26 11:07:10;;;;;;;12.10;3.10;;;;;;;32.89;29.02;96783.25;5055632;28;20017;-71
2021/07/26 11:09:43;;;;;;;5.80;3.40;;;;;;;33.19;30.05;96788.53;5056493;28;20029;-72
2021/07/26 11:12:08;;;;;;;9.35;4.45;;;;;;;32.93;30.08;96792.69;5056359;28;20475;-72
2021/07/26 11:14:34;;;;;;;10.98;3.70;;;;;;;32.48;27.48;96784.72;5056036;28;20025;-72
2021/07/26 11:17:02;;;;;;;7.68;3.67;;;;;;;32.24;29.14;96775.94;5056036;28;20021;-72
2021/07/26 11:19:40;;;;;;;6.93;3.10;;;;;;;31.83;29.71;96783.56;5055913;28;20029;-72
2021/07/26 11:22:14;;;;;;;9.48;3.60;;;;;;;31.61;28.64;96782.63;5056056;28;20032;-71
2021/07/26 11:24:54;;;;;;;9.15;3.50;;;;;;;31.62;29.79;96774.34;5054679;28;20466;-71
2021/07/26 11:27:29;;;;;;;6.65;3.75;;;;;;;31.84;29.62;96771.69;5055972;28;20036;-75
2021/07/26 11:29:55;;;;;;;7.20;3.05;;;;;;;31.93;30.10;96761.66;5055898;28;20028;-71
2021/07/26 11:32:22;;;;;;;6.65;3.20;;;;;;;32.00;31.53;96759.03;5055812;28;20021;-72
2021/07/26 11:35:02;;;;;;;4.28;3.40;;;;;;;31.95;29.56;96766.88;5055740;28;20395;-72
2021/07/26 11:37:34;;;;;;;12.60;3.70;;;;;;;31.72;29.06;96765.94;5055679;28;20028;-70
2021/07/26 11:40:05;;;;;;;9.80;3.30;;;;;;;31.66;30.45;96758.56;5055680;28;20024;-70